createdAt,value
2018-05-03T00:00:00.919Z,954.83
2018-05-03T00:00:41.377Z,954.84
2018-05-03T00:01:21.867Z,954.85
2018-05-03T00:02:02.401Z,954.82
2018-05-03T00:02:42.867Z,954.87
2018-05-03T00:03:23.372Z,954.82
2018-05-03T00:04:03.842Z,954.86
2018-05-03T00:04:44.316Z,954.86
2018-05-03T00:05:24.807Z,954.79
2018-05-03T00:06:05.273Z,954.84
2018-05-03T00:06:45.790Z,954.75
2018-05-03T00:07:26.270Z,954.79
2018-05-03T00:08:07.567Z,954.73
2018-05-03T00:08:48.067Z,954.76
2018-05-03T00:09:28.579Z,954.74
2018-05-03T00:10:09.053Z,954.72
2018-05-03T00:10:49.542Z,954.7
2018-05-03T00:11:30.019Z,954.71
2018-05-03T00:12:10.543Z,954.73
2018-05-03T00:12:51.021Z,954.71
2018-05-03T00:13:31.500Z,954.76
2018-05-03T00:14:11.975Z,954.77
2018-05-03T00:14:52.483Z,954.77
2018-05-03T00:15:32.984Z,954.74
2018-05-03T00:16:13.471Z,954.74
2018-05-03T00:16:53.977Z,954.74
2018-05-03T00:17:35.054Z,954.75
2018-05-03T00:18:15.602Z,954.78
2018-05-03T00:18:56.063Z,954.8
2018-05-03T00:19:37.420Z,954.79
2018-05-03T00:20:17.910Z,954.79
2018-05-03T00:20:58.418Z,954.79
2018-05-03T00:21:38.931Z,954.81
2018-05-03T00:22:19.423Z,954.79
2018-05-03T00:23:00.858Z,954.79
2018-05-03T00:23:41.348Z,954.78
2018-05-03T00:24:21.858Z,954.78
2018-05-03T00:25:02.882Z,954.8
2018-05-03T00:25:43.129Z,954.78
2018-05-03T00:26:23.626Z,954.77
2018-05-03T00:27:04.120Z,954.77
2018-05-03T00:27:44.609Z,954.79
2018-05-03T00:28:25.110Z,954.76
2018-05-03T00:29:05.591Z,954.78
2018-05-03T00:29:46.071Z,954.79
2018-05-03T00:30:26.592Z,954.79
2018-05-03T00:31:07.061Z,954.82
2018-05-03T00:31:47.556Z,954.9
2018-05-03T00:32:28.056Z,954.89
2018-05-03T00:33:08.581Z,954.88
2018-05-03T00:33:49.029Z,954.93
2018-05-03T00:34:29.555Z,954.93
2018-05-03T00:35:10.060Z,954.93
2018-05-03T00:35:50.533Z,954.88
2018-05-03T00:36:31.011Z,954.9
2018-05-03T00:37:11.521Z,954.91
2018-05-03T00:37:51.995Z,954.92
2018-05-03T00:38:32.467Z,954.89
2018-05-03T00:39:12.966Z,954.93
2018-05-03T00:39:53.453Z,954.91
2018-05-03T00:40:33.970Z,954.93
2018-05-03T00:41:14.462Z,954.97
2018-05-03T00:41:54.959Z,954.92
2018-05-03T00:42:35.433Z,954.97
2018-05-03T00:43:15.919Z,954.95
2018-05-03T00:43:56.422Z,954.94
2018-05-03T00:44:36.954Z,954.93
2018-05-03T00:45:17.399Z,954.94
2018-05-03T00:45:57.905Z,954.95
2018-05-03T00:46:38.436Z,954.91
2018-05-03T00:47:18.916Z,954.92
2018-05-03T00:47:59.422Z,954.94
2018-05-03T00:48:39.899Z,954.89
2018-05-03T00:49:20.399Z,954.95
2018-05-03T00:50:00.908Z,954.94
2018-05-03T00:50:41.415Z,954.91
2018-05-03T00:51:21.881Z,954.89
2018-05-03T00:52:02.354Z,954.93
2018-05-03T00:52:42.862Z,954.89
2018-05-03T00:53:23.356Z,954.87
2018-05-03T00:54:03.842Z,954.86
2018-05-03T00:54:44.318Z,954.9
2018-05-03T00:55:25.379Z,954.88
2018-05-03T00:56:05.314Z,954.92
2018-05-03T00:56:45.793Z,954.9
2018-05-03T00:57:26.335Z,954.89
2018-05-03T00:58:07.162Z,954.86
2018-05-03T00:58:47.656Z,954.81
2018-05-03T00:59:28.153Z,954.83
2018-05-03T01:00:08.643Z,954.85
2018-05-03T01:00:49.151Z,954.87
2018-05-03T01:01:29.650Z,954.84
2018-05-03T01:02:10.143Z,954.87
2018-05-03T01:02:50.665Z,954.85
2018-05-03T01:03:31.143Z,954.82
2018-05-03T01:04:11.664Z,954.84
2018-05-03T01:04:52.171Z,954.86
2018-05-03T01:05:32.607Z,954.89
2018-05-03T01:06:13.161Z,954.84
2018-05-03T01:06:53.658Z,954.87
2018-05-03T01:07:34.121Z,954.87
2018-05-03T01:08:14.621Z,954.91
2018-05-03T01:08:55.121Z,954.85
2018-05-03T01:09:35.651Z,954.88
2018-05-03T01:10:16.100Z,954.83
2018-05-03T01:10:56.637Z,954.79
2018-05-03T01:11:37.172Z,954.81
2018-05-03T01:12:17.635Z,954.8
2018-05-03T01:12:58.116Z,954.84
2018-05-03T01:13:38.624Z,954.81
2018-05-03T01:14:19.075Z,954.8
2018-05-03T01:14:59.611Z,954.78
2018-05-03T01:15:40.070Z,954.83
2018-05-03T01:16:20.580Z,954.81
2018-05-03T01:17:01.061Z,954.81
2018-05-03T01:17:41.552Z,954.82
2018-05-03T01:18:22.090Z,954.83
2018-05-03T01:19:02.563Z,954.85
2018-05-03T01:19:43.027Z,954.86
2018-05-03T01:20:23.518Z,954.91
2018-05-03T01:21:03.993Z,954.9
2018-05-03T01:21:44.505Z,954.89
2018-05-03T01:22:24.982Z,954.87
2018-05-03T01:23:05.468Z,954.9
2018-05-03T01:23:45.982Z,954.89
2018-05-03T01:24:26.445Z,954.89
2018-05-03T01:25:06.958Z,954.88
2018-05-03T01:25:47.438Z,954.85
2018-05-03T01:26:27.928Z,954.82
2018-05-03T01:27:08.430Z,954.79
2018-05-03T01:27:48.899Z,954.83
2018-05-03T01:28:29.390Z,954.79
2018-05-03T01:29:09.897Z,954.73
2018-05-03T01:29:50.421Z,954.74
2018-05-03T01:30:30.891Z,954.74
2018-05-03T01:31:11.360Z,954.71
2018-05-03T01:31:51.874Z,954.67
2018-05-03T01:32:32.364Z,954.63
2018-05-03T01:33:12.864Z,954.64
2018-05-03T01:33:53.376Z,954.61
2018-05-03T01:34:33.881Z,954.58
2018-05-03T01:35:14.888Z,954.63
2018-05-03T01:35:55.464Z,954.57
2018-05-03T01:36:35.941Z,954.57
2018-05-03T01:37:16.423Z,954.55
2018-05-03T01:37:57.881Z,954.57
2018-05-03T01:38:38.925Z,954.6
2018-05-03T01:39:18.867Z,954.61
2018-05-03T01:39:59.379Z,954.58
2018-05-03T01:40:39.862Z,954.61
2018-05-03T01:41:20.373Z,954.54
2018-05-03T01:42:00.846Z,954.53
2018-05-03T01:42:41.374Z,954.53
2018-05-03T01:43:21.848Z,954.53
2018-05-03T01:44:02.382Z,954.49
2018-05-03T01:44:42.844Z,954.55
2018-05-03T01:45:23.471Z,954.53
2018-05-03T01:46:03.967Z,954.51
2018-05-03T01:46:44.427Z,954.51
2018-05-03T01:47:24.941Z,954.5
2018-05-03T01:48:05.461Z,954.56
2018-05-03T01:48:45.948Z,954.56
2018-05-03T01:49:26.418Z,954.55
2018-05-03T01:50:06.946Z,954.6
2018-05-03T01:50:47.385Z,954.61
2018-05-03T01:51:27.882Z,954.59
2018-05-03T01:52:08.443Z,954.61
2018-05-03T01:52:48.886Z,954.65
2018-05-03T01:53:29.357Z,954.63
2018-05-03T01:54:09.863Z,954.65
2018-05-03T01:54:50.378Z,954.66
2018-05-03T01:55:30.855Z,954.63
2018-05-03T01:56:11.364Z,954.65
2018-05-03T01:56:51.836Z,954.65
2018-05-03T01:57:32.335Z,954.63
2018-05-03T01:58:12.843Z,954.65
2018-05-03T01:58:53.329Z,954.62
2018-05-03T01:59:33.828Z,954.61
2018-05-03T02:00:14.419Z,954.63
2018-05-03T02:00:54.845Z,954.62
2018-05-03T02:01:35.310Z,954.57
2018-05-03T02:02:15.843Z,954.59
2018-05-03T02:02:56.303Z,954.58
2018-05-03T02:03:36.789Z,954.59
2018-05-03T02:04:17.357Z,954.57
2018-05-03T02:04:57.842Z,954.6
2018-05-03T02:05:38.329Z,954.59
2018-05-03T02:06:18.837Z,954.6
2018-05-03T02:06:59.326Z,954.6
2018-05-03T02:07:39.823Z,954.61
2018-05-03T02:08:20.339Z,954.62
2018-05-03T02:09:00.838Z,954.63
2018-05-03T02:09:41.292Z,954.6
2018-05-03T02:10:21.791Z,954.66
2018-05-03T02:11:02.297Z,954.63
2018-05-03T02:11:43.389Z,954.65
2018-05-03T02:12:23.301Z,954.65
2018-05-03T02:13:03.780Z,954.59
2018-05-03T02:13:44.263Z,954.64
2018-05-03T02:14:24.760Z,954.67
2018-05-03T02:15:05.892Z,954.63
2018-05-03T02:15:45.781Z,954.65
2018-05-03T02:16:26.290Z,954.66
2018-05-03T02:17:06.774Z,954.66
2018-05-03T02:17:47.260Z,954.67
2018-05-03T02:18:27.740Z,954.67
2018-05-03T02:19:08.284Z,954.71
2018-05-03T02:19:48.773Z,954.7
2018-05-03T02:20:29.254Z,954.7
2018-05-03T02:21:09.784Z,954.73
2018-05-03T02:21:50.261Z,954.71
2018-05-03T02:22:30.751Z,954.69
2018-05-03T02:23:11.277Z,954.71
2018-05-03T02:23:51.774Z,954.75
2018-05-03T02:24:32.242Z,954.74
2018-05-03T02:25:12.725Z,954.74
2018-05-03T02:25:53.199Z,954.71
2018-05-03T02:26:33.723Z,954.75
2018-05-03T02:27:14.235Z,954.73
2018-05-03T02:27:54.731Z,954.73
2018-05-03T02:28:35.205Z,954.77
2018-05-03T02:29:15.669Z,954.74
2018-05-03T02:29:56.178Z,954.73
2018-05-03T02:30:36.689Z,954.74
2018-05-03T02:31:17.192Z,954.75
2018-05-03T02:31:57.656Z,954.75
2018-05-03T02:32:38.193Z,954.77
2018-05-03T02:33:18.669Z,954.75
2018-05-03T02:33:59.185Z,954.76
2018-05-03T02:34:39.668Z,954.81
2018-05-03T02:35:20.175Z,954.79
2018-05-03T02:36:00.654Z,954.79
2018-05-03T02:36:41.179Z,954.84
2018-05-03T02:37:21.620Z,954.88
2018-05-03T02:38:02.117Z,954.85
2018-05-03T02:38:43.205Z,954.93
2018-05-03T02:39:23.709Z,954.93
2018-05-03T02:40:04.176Z,954.95
2018-05-03T02:40:44.654Z,954.95
2018-05-03T02:41:25.187Z,954.96
2018-05-03T02:42:05.704Z,955
2018-05-03T02:42:46.190Z,955.01
2018-05-03T02:43:26.628Z,955.01
2018-05-03T02:44:07.158Z,955.03
2018-05-03T02:44:47.645Z,955.04
2018-05-03T02:45:28.160Z,955.04
2018-05-03T02:46:08.666Z,955.06
2018-05-03T02:46:49.152Z,955.08
2018-05-03T02:47:29.622Z,955.09
2018-05-03T02:48:10.904Z,955.07
2018-05-03T02:48:50.637Z,955.08
2018-05-03T02:49:31.131Z,955.1
2018-05-03T02:50:11.610Z,955.06
2018-05-03T02:50:52.898Z,955.07
2018-05-03T02:51:32.618Z,955.12
2018-05-03T02:52:13.086Z,955.1
2018-05-03T02:52:53.636Z,955.08
2018-05-03T02:53:34.118Z,955.06
2018-05-03T02:54:14.786Z,955.1
2018-05-03T02:54:55.176Z,955.1
2018-05-03T02:55:35.691Z,955.11
2018-05-03T02:56:16.154Z,955.09
2018-05-03T02:56:56.651Z,955.13
2018-05-03T02:57:37.174Z,955.17
2018-05-03T02:58:17.933Z,955.15
2018-05-03T02:58:58.442Z,955.13
2018-05-03T02:59:38.936Z,955.11
2018-05-03T03:00:20.200Z,955.19
2018-05-03T03:01:00.706Z,955.16
2018-05-03T03:01:41.197Z,955.2
2018-05-03T03:02:21.734Z,955.21
2018-05-03T03:03:02.254Z,955.24
2018-05-03T03:03:42.781Z,955.23
2018-05-03T03:04:23.310Z,955.27
2018-05-03T03:05:03.846Z,955.26
2018-05-03T03:05:44.365Z,955.3
2018-05-03T03:06:24.892Z,955.29
2018-05-03T03:07:05.413Z,955.27
2018-05-03T03:07:45.939Z,955.29
2018-05-03T03:08:26.468Z,955.32
2018-05-03T03:09:06.989Z,955.31
2018-05-03T03:09:47.520Z,955.29
2018-05-03T03:10:28.045Z,955.26
2018-05-03T03:11:08.579Z,955.29
2018-05-03T03:11:49.902Z,955.21
2018-05-03T03:12:30.176Z,955.24
2018-05-03T03:13:10.692Z,955.25
2018-05-03T03:13:51.225Z,955.27
2018-05-03T03:14:31.746Z,955.26
2018-05-03T03:15:12.268Z,955.27
2018-05-03T03:15:52.791Z,955.32
2018-05-03T03:16:33.316Z,955.32
2018-05-03T03:17:13.849Z,955.34
2018-05-03T03:17:54.384Z,955.33
2018-05-03T03:18:34.952Z,955.36
2018-05-03T03:19:15.419Z,955.37
2018-05-03T03:19:55.953Z,955.29
2018-05-03T03:20:37.404Z,955.31
2018-05-03T03:21:16.947Z,955.34
2018-05-03T03:21:57.461Z,955.35
2018-05-03T03:22:38.124Z,955.32
2018-05-03T03:23:18.851Z,955.36
2018-05-03T03:23:59.902Z,955.34
2018-05-03T03:24:39.896Z,955.34
2018-05-03T03:25:20.418Z,955.38
2018-05-03T03:26:00.949Z,955.33
2018-05-03T03:26:41.432Z,955.34
2018-05-03T03:27:21.952Z,955.35
2018-05-03T03:28:02.487Z,955.32
2018-05-03T03:28:43.038Z,955.36
2018-05-03T03:29:23.586Z,955.36
2018-05-03T03:30:04.078Z,955.4
2018-05-03T03:30:44.904Z,955.41
2018-05-03T03:31:25.407Z,955.4
2018-05-03T03:32:06.381Z,955.43
2018-05-03T03:32:46.880Z,955.45
2018-05-03T03:33:27.465Z,955.45
2018-05-03T03:34:07.967Z,955.45
2018-05-03T03:34:48.770Z,955.47
2018-05-03T03:35:29.258Z,955.48
2018-05-03T03:36:09.912Z,955.48
2018-05-03T03:36:50.513Z,955.48
2018-05-03T03:37:31.904Z,955.49
2018-05-03T03:38:11.458Z,955.51
2018-05-03T03:38:51.964Z,955.51
2018-05-03T03:39:32.424Z,955.52
2018-05-03T03:40:12.898Z,955.54
2018-05-03T03:40:53.382Z,955.53
2018-05-03T03:41:33.936Z,955.55
2018-05-03T03:42:14.429Z,955.55
2018-05-03T03:42:54.940Z,955.53
2018-05-03T03:43:35.474Z,955.6
2018-05-03T03:44:15.991Z,955.59
2018-05-03T03:44:56.500Z,955.59
2018-05-03T03:45:36.983Z,955.6
2018-05-03T03:46:17.493Z,955.57
2018-05-03T03:46:57.989Z,955.61
2018-05-03T03:47:38.472Z,955.56
2018-05-03T03:48:18.965Z,955.56
2018-05-03T03:49:01.643Z,955.57
2018-05-03T03:49:44.622Z,955.56
2018-05-03T03:50:53.427Z,955.56
2018-05-03T03:51:33.330Z,955.57
2018-05-03T03:52:13.813Z,955.56
2018-05-03T03:52:54.353Z,955.55
2018-05-03T03:53:34.859Z,955.55
2018-05-03T03:54:15.348Z,955.56
2018-05-03T03:54:55.871Z,955.52
2018-05-03T03:55:36.359Z,955.56
2018-05-03T03:56:16.882Z,955.56
2018-05-03T03:56:57.921Z,955.6
2018-05-03T03:57:38.424Z,955.62
2018-05-03T03:58:19.173Z,955.62
2018-05-03T03:58:59.683Z,955.61
2018-05-03T03:59:40.203Z,955.61
2018-05-03T04:00:20.711Z,955.64
2018-05-03T04:01:01.232Z,955.68
2018-05-03T04:01:41.761Z,955.69
2018-05-03T04:02:22.289Z,955.73
2018-05-03T04:03:02.822Z,955.72
2018-05-03T04:03:43.342Z,955.72
2018-05-03T04:04:23.855Z,955.72
2018-05-03T04:05:04.382Z,955.76
2018-05-03T04:05:44.940Z,955.79
2018-05-03T04:06:25.466Z,955.78
2018-05-03T04:07:05.996Z,955.82
2018-05-03T04:07:46.509Z,955.8
2018-05-03T04:08:27.040Z,955.82
2018-05-03T04:09:07.571Z,955.87
2018-05-03T04:09:48.101Z,955.88
2018-05-03T04:10:28.630Z,955.83
2018-05-03T04:11:09.913Z,955.82
2018-05-03T04:11:49.677Z,955.88
2018-05-03T04:12:30.206Z,955.85
2018-05-03T04:13:10.735Z,955.88
2018-05-03T04:13:51.305Z,955.9
2018-05-03T04:14:31.798Z,955.88
2018-05-03T04:15:12.327Z,955.91
2018-05-03T04:15:52.834Z,955.9
2018-05-03T04:16:33.359Z,955.94
2018-05-03T04:17:13.887Z,955.93
2018-05-03T04:17:54.420Z,955.94
2018-05-03T04:18:34.939Z,955.92
2018-05-03T04:19:15.468Z,955.95
2018-05-03T04:19:55.996Z,955.97
2018-05-03T04:20:36.513Z,955.91
2018-05-03T04:21:17.043Z,955.93
2018-05-03T04:21:57.567Z,955.89
2018-05-03T04:22:38.091Z,955.89
2018-05-03T04:23:18.621Z,955.9
2018-05-03T04:23:59.138Z,955.89
2018-05-03T04:24:39.672Z,955.87
2018-05-03T04:25:20.794Z,955.83
2018-05-03T04:26:01.314Z,955.79
2018-05-03T04:26:41.838Z,955.79
2018-05-03T04:27:22.365Z,955.8
2018-05-03T04:28:02.897Z,955.82
2018-05-03T04:28:43.426Z,955.81
2018-05-03T04:29:23.952Z,955.84
2018-05-03T04:30:04.481Z,955.85
2018-05-03T04:30:45.017Z,955.79
2018-05-03T04:31:25.544Z,955.86
2018-05-03T04:32:06.078Z,955.84
2018-05-03T04:32:46.602Z,955.83
2018-05-03T04:33:27.129Z,955.82
2018-05-03T04:34:07.662Z,955.84
2018-05-03T04:34:48.189Z,955.86
2018-05-03T04:35:28.720Z,955.85
2018-05-03T04:36:09.258Z,955.86
2018-05-03T04:36:49.777Z,955.85
2018-05-03T04:37:30.306Z,955.88
2018-05-03T04:38:10.831Z,955.87
2018-05-03T04:38:51.358Z,955.87
2018-05-03T04:39:32.413Z,955.88
2018-05-03T04:40:12.914Z,955.85
2018-05-03T04:40:52.941Z,955.81
2018-05-03T04:41:33.466Z,955.84
2018-05-03T04:42:15.416Z,955.83
2018-05-03T04:42:54.501Z,955.83
2018-05-03T04:43:35.035Z,955.78
2018-05-03T04:44:15.565Z,955.8
2018-05-03T04:44:56.095Z,955.82
2018-05-03T04:45:36.647Z,955.82
2018-05-03T04:46:17.171Z,955.83
2018-05-03T04:46:58.633Z,955.77
2018-05-03T04:47:39.114Z,955.8
2018-05-03T04:48:19.630Z,955.8
2018-05-03T04:49:00.158Z,955.83
2018-05-03T04:49:40.685Z,955.81
2018-05-03T04:50:21.213Z,955.86
2018-05-03T04:51:01.746Z,955.85
2018-05-03T04:51:42.276Z,955.82
2018-05-03T04:52:23.414Z,955.84
2018-05-03T04:53:03.330Z,955.85
2018-05-03T04:53:44.918Z,955.82
2018-05-03T04:54:24.380Z,955.85
2018-05-03T04:55:04.912Z,955.87
2018-05-03T04:55:45.435Z,955.87
2018-05-03T04:56:25.962Z,955.86
2018-05-03T04:57:06.498Z,955.89
2018-05-03T04:57:47.021Z,955.87
2018-05-03T04:58:28.918Z,955.85
2018-05-03T04:59:08.829Z,955.85
2018-05-03T04:59:49.310Z,955.85
2018-05-03T05:00:30.612Z,955.85
2018-05-03T05:01:11.167Z,955.84
2018-05-03T05:01:51.699Z,955.88
2018-05-03T05:02:32.922Z,955.84
2018-05-03T05:03:12.749Z,955.91
2018-05-03T05:03:53.278Z,955.87
2018-05-03T05:04:34.225Z,955.89
2018-05-03T05:05:14.748Z,955.9
2018-05-03T05:05:55.272Z,955.95
2018-05-03T05:06:35.797Z,955.91
2018-05-03T05:07:16.328Z,955.88
2018-05-03T05:07:56.853Z,955.94
2018-05-03T05:08:37.383Z,955.97
2018-05-03T05:09:18.892Z,955.93
2018-05-03T05:09:59.416Z,955.95
2018-05-03T05:10:39.939Z,955.93
2018-05-03T05:11:20.468Z,955.93
2018-05-03T05:12:00.992Z,955.91
2018-05-03T05:12:41.521Z,955.95
2018-05-03T05:13:22.051Z,955.95
2018-05-03T05:14:02.578Z,955.97
2018-05-03T05:14:43.105Z,955.99
2018-05-03T05:15:23.636Z,955.99
2018-05-03T05:16:04.919Z,956
2018-05-03T05:16:44.698Z,956.02
2018-05-03T05:17:25.217Z,956.01
2018-05-03T05:18:05.743Z,955.99
2018-05-03T05:18:46.255Z,956.03
2018-05-03T05:19:26.780Z,956.03
2018-05-03T05:20:07.308Z,956.01
2018-05-03T05:20:47.838Z,956.04
2018-05-03T05:21:28.365Z,956.04
2018-05-03T05:22:08.891Z,956.07
2018-05-03T05:22:49.419Z,956.1
2018-05-03T05:23:29.947Z,956.13
2018-05-03T05:24:10.585Z,956.11
2018-05-03T05:24:51.005Z,956.16
2018-05-03T05:25:31.525Z,956.13
2018-05-03T05:26:12.123Z,956.12
2018-05-03T05:26:52.585Z,956.16
2018-05-03T05:27:33.110Z,956.17
2018-05-03T05:28:13.634Z,956.19
2018-05-03T05:28:54.175Z,956.2
2018-05-03T05:29:34.705Z,956.21
2018-05-03T05:30:15.233Z,956.25
2018-05-03T05:30:55.763Z,956.23
2018-05-03T05:31:36.296Z,956.28
2018-05-03T05:32:16.817Z,956.31
2018-05-03T05:32:57.338Z,956.28
2018-05-03T05:33:37.855Z,956.3
2018-05-03T05:34:18.376Z,956.32
2018-05-03T05:34:58.914Z,956.29
2018-05-03T05:35:39.436Z,956.31
2018-05-03T05:36:19.963Z,956.36
2018-05-03T05:37:00.491Z,956.34
2018-05-03T05:37:41.021Z,956.34
2018-05-03T05:38:21.534Z,956.34
2018-05-03T05:39:02.143Z,956.34
2018-05-03T05:39:42.590Z,956.37
2018-05-03T05:40:23.113Z,956.38
2018-05-03T05:41:03.642Z,956.4
2018-05-03T05:41:44.163Z,956.38
2018-05-03T05:42:24.690Z,956.41
2018-05-03T05:43:05.222Z,956.38
2018-05-03T05:43:45.749Z,956.4
2018-05-03T05:44:26.337Z,956.41
2018-05-03T05:45:06.814Z,956.42
2018-05-03T05:45:47.317Z,956.43
2018-05-03T05:46:27.824Z,956.47
2018-05-03T05:47:08.347Z,956.48
2018-05-03T05:47:48.835Z,956.43
2018-05-03T05:48:29.345Z,956.44
2018-05-03T05:49:09.869Z,956.47
2018-05-03T05:49:50.371Z,956.49
2018-05-03T05:50:30.859Z,956.43
2018-05-03T05:51:11.434Z,956.4
2018-05-03T05:51:51.839Z,956.46
2018-05-03T05:52:32.347Z,956.44
2018-05-03T05:53:12.786Z,956.42
2018-05-03T05:53:53.293Z,956.43
2018-05-03T05:54:33.761Z,956.49
2018-05-03T05:55:14.264Z,956.47
2018-05-03T05:55:54.721Z,956.45
2018-05-03T05:56:35.305Z,956.44
2018-05-03T05:57:15.761Z,956.47
2018-05-03T05:57:56.255Z,956.48
2018-05-03T05:58:36.752Z,956.43
2018-05-03T05:59:17.256Z,956.44
2018-05-03T05:59:57.739Z,956.49
2018-05-03T06:00:38.278Z,956.44
2018-05-03T06:01:18.753Z,956.42
2018-05-03T06:01:59.230Z,956.42
2018-05-03T06:02:39.732Z,956.41
2018-05-03T06:03:20.229Z,956.4
2018-05-03T06:04:00.705Z,956.45
2018-05-03T06:04:41.222Z,956.49
2018-05-03T06:05:21.768Z,956.5
2018-05-03T06:06:02.227Z,956.51
2018-05-03T06:06:42.747Z,956.52
2018-05-03T06:07:23.209Z,956.49
2018-05-03T06:08:03.687Z,956.49
2018-05-03T06:08:44.223Z,956.53
2018-05-03T06:09:25.429Z,956.54
2018-05-03T06:10:06.203Z,956.51
2018-05-03T06:10:46.688Z,956.58
2018-05-03T06:11:27.210Z,956.58
2018-05-03T06:12:07.691Z,956.59
2018-05-03T06:12:48.207Z,956.59
2018-05-03T06:13:28.707Z,956.59
2018-05-03T06:14:09.215Z,956.57
2018-05-03T06:14:49.728Z,956.55
2018-05-03T06:15:31.241Z,956.59
2018-05-03T06:16:12.320Z,956.65
2018-05-03T06:16:52.840Z,956.52
2018-05-03T06:17:33.347Z,956.59
2018-05-03T06:18:13.849Z,956.63
2018-05-03T06:18:54.366Z,956.58
2018-05-03T06:19:34.895Z,956.63
2018-05-03T06:20:15.388Z,956.64
2018-05-03T06:20:55.883Z,956.63
2018-05-03T06:21:36.413Z,956.61
2018-05-03T06:22:16.929Z,956.62
2018-05-03T06:22:57.409Z,956.67
2018-05-03T06:23:37.923Z,956.67
2018-05-03T06:24:18.439Z,956.63
2018-05-03T06:24:58.910Z,956.66
2018-05-03T06:25:39.394Z,956.67
2018-05-03T06:26:19.918Z,956.66
2018-05-03T06:27:00.410Z,956.69
2018-05-03T06:27:40.924Z,956.71
2018-05-03T06:28:21.431Z,956.71
2018-05-03T06:29:01.933Z,956.67
2018-05-03T06:29:42.440Z,956.69
2018-05-03T06:30:22.945Z,956.69
2018-05-03T06:31:03.430Z,956.69
2018-05-03T06:31:43.931Z,956.68
2018-05-03T06:32:24.408Z,956.7
2018-05-03T06:33:04.920Z,956.74
2018-05-03T06:33:45.421Z,956.74
2018-05-03T06:34:25.968Z,956.74
2018-05-03T06:35:06.471Z,956.79
2018-05-03T06:35:46.963Z,956.8
2018-05-03T06:36:27.442Z,956.84
2018-05-03T06:37:07.948Z,956.84
2018-05-03T06:37:48.456Z,956.85
2018-05-03T06:38:28.984Z,956.89
2018-05-03T06:39:09.517Z,956.95
2018-05-03T06:39:49.987Z,956.97
2018-05-03T06:40:30.498Z,956.95
2018-05-03T06:41:11.008Z,956.92
2018-05-03T06:41:51.529Z,956.94
2018-05-03T06:42:32.055Z,956.9
2018-05-03T06:43:12.585Z,956.88
2018-05-03T06:43:53.112Z,956.94
2018-05-03T06:44:33.638Z,956.93
2018-05-03T06:45:14.175Z,956.92
2018-05-03T06:45:54.694Z,956.88
2018-05-03T06:46:36.108Z,956.9
2018-05-03T06:47:16.631Z,956.9
2018-05-03T06:47:57.158Z,956.88
2018-05-03T06:48:37.689Z,956.85
2018-05-03T06:49:18.222Z,956.86
2018-05-03T06:49:58.750Z,956.9
2018-05-03T06:50:39.274Z,956.91
2018-05-03T06:51:19.783Z,956.89
2018-05-03T06:52:00.310Z,956.91
2018-05-03T06:52:40.839Z,956.87
2018-05-03T06:53:21.368Z,956.94
2018-05-03T06:54:01.899Z,956.86
2018-05-03T06:54:42.429Z,956.87
2018-05-03T06:55:22.967Z,956.87
2018-05-03T06:56:03.494Z,956.9
2018-05-03T06:56:44.013Z,956.88
2018-05-03T06:57:24.530Z,956.9
2018-05-03T06:58:05.057Z,956.9
2018-05-03T06:58:45.832Z,956.92
2018-05-03T06:59:26.359Z,956.88
2018-05-03T07:00:06.914Z,956.92
2018-05-03T07:00:47.390Z,956.91
2018-05-03T07:01:27.903Z,956.89
2018-05-03T07:02:08.429Z,956.87
2018-05-03T07:02:48.953Z,956.89
2018-05-03T07:03:29.473Z,956.9
2018-05-03T07:04:10.124Z,956.92
2018-05-03T07:04:50.533Z,956.93
2018-05-03T07:05:31.061Z,956.93
2018-05-03T07:06:11.590Z,956.94
2018-05-03T07:06:52.121Z,956.94
2018-05-03T07:07:33.447Z,956.95
2018-05-03T07:08:13.719Z,956.95
2018-05-03T07:08:54.245Z,956.99
2018-05-03T07:09:34.793Z,957
2018-05-03T07:10:15.301Z,957.02
2018-05-03T07:10:55.842Z,956.99
2018-05-03T07:11:36.360Z,957
2018-05-03T07:12:16.889Z,957
2018-05-03T07:12:57.416Z,957.01
2018-05-03T07:13:37.939Z,957
2018-05-03T07:14:18.465Z,957.08
2018-05-03T07:14:59.009Z,957.09
2018-05-03T07:15:39.539Z,957.04
2018-05-03T07:16:20.108Z,957.03
2018-05-03T07:17:00.593Z,957.03
2018-05-03T07:17:41.125Z,957.07
2018-05-03T07:18:21.656Z,957.04
2018-05-03T07:19:02.190Z,957.05
2018-05-03T07:19:42.720Z,957.08
2018-05-03T07:20:23.248Z,957.02
2018-05-03T07:21:03.780Z,957.15
2018-05-03T07:21:44.312Z,957.15
2018-05-03T07:22:24.845Z,957.15
2018-05-03T07:23:05.954Z,957.13
2018-05-03T07:23:46.511Z,957.13
2018-05-03T07:24:27.009Z,957.13
2018-05-03T07:25:07.550Z,957.12
2018-05-03T07:25:48.954Z,957.14
2018-05-03T07:26:29.451Z,957.19
2018-05-03T07:27:09.323Z,957.1
2018-05-03T07:27:49.851Z,957.14
2018-05-03T07:28:30.379Z,957.13
2018-05-03T07:29:10.906Z,957.15
2018-05-03T07:29:51.972Z,957.16
2018-05-03T07:30:32.519Z,957.13
2018-05-03T07:31:13.051Z,957.16
2018-05-03T07:31:53.581Z,957.18
2018-05-03T07:32:34.117Z,957.24
2018-05-03T07:33:14.652Z,957.21
2018-05-03T07:33:55.186Z,957.27
2018-05-03T07:34:35.718Z,957.26
2018-05-03T07:35:16.248Z,957.3
2018-05-03T07:35:56.783Z,957.32
2018-05-03T07:36:37.318Z,957.26
2018-05-03T07:37:17.841Z,957.29
2018-05-03T07:37:58.375Z,957.27
2018-05-03T07:38:38.906Z,957.3
2018-05-03T07:39:19.430Z,957.29
2018-05-03T07:39:59.959Z,957.25
2018-05-03T07:40:40.507Z,957.31
2018-05-03T07:41:21.028Z,957.26
2018-05-03T07:42:01.560Z,957.26
2018-05-03T07:42:42.090Z,957.3
2018-05-03T07:43:22.621Z,957.25
2018-05-03T07:44:03.160Z,957.26
2018-05-03T07:44:43.673Z,957.24
2018-05-03T07:45:24.207Z,957.25
2018-05-03T07:46:04.743Z,957.35
2018-05-03T07:46:45.276Z,957.3
2018-05-03T07:47:25.804Z,957.22
2018-05-03T07:48:06.330Z,957.21
2018-05-03T07:48:46.863Z,957.17
2018-05-03T07:49:27.377Z,957.15
2018-05-03T07:50:07.909Z,957.19
2018-05-03T07:50:48.448Z,957.21
2018-05-03T07:51:28.984Z,957.21
2018-05-03T07:52:09.519Z,957.22
2018-05-03T07:52:50.049Z,957.21
2018-05-03T07:53:30.585Z,957.2
2018-05-03T07:54:11.121Z,957.25
2018-05-03T07:54:51.655Z,957.19
2018-05-03T07:55:32.197Z,957.22
2018-05-03T07:56:12.729Z,957.21
2018-05-03T07:56:53.266Z,957.21
2018-05-03T07:57:33.841Z,957.24
2018-05-03T07:58:14.314Z,957.22
2018-05-03T07:58:55.237Z,957.18
2018-05-03T07:59:36.467Z,957.24
2018-05-03T08:00:16.304Z,957.28
2018-05-03T08:00:57.466Z,957.26
2018-05-03T08:01:37.735Z,957.27
2018-05-03T08:02:19.468Z,957.28
2018-05-03T08:03:00.042Z,957.28
2018-05-03T08:03:40.571Z,957.28
2018-05-03T08:04:21.105Z,957.26
2018-05-03T08:05:01.719Z,957.27
2018-05-03T08:05:42.156Z,957.28
2018-05-03T08:06:22.773Z,957.28
2018-05-03T08:07:03.222Z,957.29
2018-05-03T08:07:43.755Z,957.28
2018-05-03T08:08:24.278Z,957.31
2018-05-03T08:09:04.816Z,957.33
2018-05-03T08:09:45.360Z,957.3
2018-05-03T08:10:25.891Z,957.29
2018-05-03T08:11:06.428Z,957.31
2018-05-03T08:11:46.948Z,957.3
2018-05-03T08:12:27.537Z,957.3
2018-05-03T08:13:08.010Z,957.28
2018-05-03T08:13:48.547Z,957.26
2018-05-03T08:14:29.081Z,957.25
2018-05-03T08:15:09.616Z,957.3
2018-05-03T08:15:50.148Z,957.27
2018-05-03T08:16:30.680Z,957.27
2018-05-03T08:17:11.217Z,957.32
2018-05-03T08:17:51.762Z,957.36
2018-05-03T08:18:32.290Z,957.3
2018-05-03T08:19:12.822Z,957.35
2018-05-03T08:19:53.361Z,957.37
2018-05-03T08:20:33.887Z,957.38
2018-05-03T08:21:14.416Z,957.35
2018-05-03T08:21:55.894Z,957.4
2018-05-03T08:22:36.423Z,957.43
2018-05-03T08:23:16.959Z,957.39
2018-05-03T08:23:57.491Z,957.4
2018-05-03T08:24:38.977Z,957.4
2018-05-03T08:25:18.555Z,957.39
2018-05-03T08:25:59.094Z,957.39
2018-05-03T08:26:40.481Z,957.43
2018-05-03T08:27:20.150Z,957.38
2018-05-03T08:28:00.688Z,957.44